A- A+ FrançaisEnglishEspañol中国

最近的 KLGA New York La GuardiaBGGH NuukKMSP Minneapolis St Paul IntlKPGD Charlotte CoLFSB Basle-Mulhouse KPPQ Pittsburgh Penstone Mun

飞行员的航空天气,使用METAR(气象机场报告)进行的飞行准备和TAF(终端机场预报:针对以下情况的短期天气预报)航空)。 以及其他资源,例如VAC(目视进近图)和NOTAM(通知飞行员)以进行预试飞行.

METAR, TAF, VAC, NOTAM Columbus Co机场 (美国) / OACI KCPC

它位于附近 Whiteville, Brunswick 在 2 km, Whiteville 在 7.4 km, Chadbourn 在 12 km, Tabor City 在 20 km, Lake Waccamaw 在 20 km, Loris 在 29 km, Bladenboro 在 30 km, Elizabethtown 在 41 km, Calabash 在 43 km, Carolina Shores 在 43 km,

机场的高度为 Columbus Co机场的

30 m = 98 ft

跑道 Columbus Co机场的

附近的机场Columbus Co机场的

目前的天气 Columbus Co机场的 - KCPC

ciel dégagé
15°C

Vent 7 km/h

可提供5天天气预报 Brunswick 在 2 km, Whiteville 在 7.4 km, Chadbourn 在 12 km, Tabor City 在 20 km, Lake Waccamaw 在 20 km, Loris 在 29 km, Bladenboro 在 30 km, Elizabethtown 在 41 km, Calabash 在 43 km, Carolina Shores 在 43 km,

METAR Columbus Co机场的 - KCPC

KCPC 242015Z AUTO 08004KT 7SM -RA OVC007 15/14 A3004 RMK AO2 P0001 T01500141

Columbus Co机场METAR解码 (美国)

KCPC机场发行的METAR日期2020年03月24日至20:15 GMT. 这是一个自动生成的METAR, 警告:此METAR已过期, 已于 245 天 11 小时 18 分钟.

可见度为11.3 km = 7 sm.

温度为15°C = 59 °F 露点为14°C = 57 °F 。 这相当于94%的相对湿度。.

QNH是1017 hPa = 30.03 inHg

的风4 kt = 7 km/h, 风向为80°.

云:多云700 ft = 210 m.

光雨

备注 AO2 P0001 T01500141

TAF Columbus Co机场的 - KCPC

没有TAF

Columbus Co机场的NOTAM

提供的NOTAM不能保证其时事性。 在将其用于飞行准备或在飞行期间使用之前,飞行员是唯一负责验证其有效性的人员。

没有通知

数据源